Time;durP1;ratioP1;P1;durP2;ratioP2;P2;SDS_P1;SDS_P2;PMS_P1;PMS_P2;Temp;Humidity;BMP_temperature;BMP_pressure;BME280_temperature;BME280_humidity;BME280_pressure;Samples;Min_cycle;Max_cycle;Signal;HPM_P1;HPM_P2
2023/07/29 00:01:35;;;;;;;4.63;3.67;;;14.90;99.90;;;;;;5008317;28;20033;-80
2023/07/29 00:04:01;;;;;;;4.13;3.60;;;14.90;99.90;;;;;;5009128;28;20486;-80
2023/07/29 00:06:27;;;;;;;5.03;4.53;;;14.80;99.90;;;;;;5010010;28;20022;-80
2023/07/29 00:08:53;;;;;;;5.57;4.15;;;14.80;99.90;;;;;;5012677;28;20475;-80
2023/07/29 00:11:18;;;;;;;4.57;4.10;;;14.80;99.90;;;;;;5011515;28;20075;-80
2023/07/29 00:13:44;;;;;;;6.22;4.38;;;14.70;99.90;;;;;;5012612;28;20026;-80
2023/07/29 00:16:10;;;;;;;5.03;4.35;;;14.70;99.90;;;;;;5012850;28;20117;-79
2023/07/29 00:18:35;;;;;;;4.95;4.30;;;14.70;99.90;;;;;;5012559;28;20022;-80
2023/07/29 00:21:01;;;;;;;5.45;4.78;;;14.70;99.90;;;;;;5012208;28;20058;-80
2023/07/29 00:23:27;;;;;;;14.32;6.55;;;14.60;99.90;;;;;;5080690;28;20087;-80
2023/07/29 00:25:52;;;;;;;55.00;7.28;;;14.50;99.90;;;;;;5088180;28;20020;-80
2023/07/29 00:28:18;;;;;;;26.33;5.97;;;14.40;99.90;;;;;;5057631;28;20026;-79
2023/07/29 00:30:43;;;;;;;22.13;6.18;;;14.30;99.90;;;;;;5059934;28;20106;-80
2023/07/29 00:33:09;;;;;;;6.85;5.38;;;14.20;99.90;;;;;;5033240;28;20050;-80
2023/07/29 00:35:35;;;;;;;7.10;5.65;;;14.20;99.90;;;;;;5011222;28;20025;-80
2023/07/29 00:38:01;;;;;;;8.35;5.65;;;14.30;99.90;;;;;;5012128;28;20015;-80
2023/07/29 00:40:28;;;;;;;7.88;5.57;;;14.30;99.90;;;;;;5075970;28;20093;-80
2023/07/29 00:42:54;;;;;;;7.20;6.05;;;14.30;99.90;;;;;;5012425;28;20022;-80
2023/07/29 00:45:20;;;;;;;6.15;5.05;;;14.30;99.90;;;;;;5011077;28;20020;-80
2023/07/29 00:47:46;;;;;;;6.97;5.05;;;14.20;99.90;;;;;;5013381;28;20022;-80
2023/07/29 00:50:14;;;;;;;8.10;4.75;;;14.20;99.90;;;;;;5024530;28;20033;-80
2023/07/29 00:52:40;;;;;;;4.95;4.45;;;14.20;99.90;;;;;;5012209;28;20061;-80
2023/07/29 00:55:07;;;;;;;5.68;4.22;;;14.20;99.90;;;;;;5010858;28;20026;-80
2023/07/29 00:57:33;;;;;;;5.43;4.90;;;14.20;99.90;;;;;;5073855;28;20079;-80
2023/07/29 00:59:59;;;;;;;5.55;4.07;;;14.20;99.90;;;;;;5012185;28;20029;-81
2023/07/29 01:02:26;;;;;;;6.20;4.32;;;14.20;99.90;;;;;;5010228;28;20025;-80
2023/07/29 01:04:55;;;;;;;5.25;3.90;;;14.10;99.90;;;;;;5010960;28;20022;-80
2023/07/29 01:07:32;;;;;;;5.80;4.07;;;14.10;99.90;;;;;;5011935;28;20072;-80
2023/07/29 01:10:10;;;;;;;9.02;5.05;;;14.10;99.90;;;;;;5011659;28;20391;-80
2023/07/29 01:12:57;;;;;;;8.23;4.43;;;14.10;99.90;;;;;;5012016;28;20114;-80
2023/07/29 01:15:29;;;;;;;7.85;4.75;;;14.00;99.90;;;;;;5011693;28;20029;-80
2023/07/29 01:18:09;;;;;;;9.38;5.15;;;14.00;99.90;;;;;;5009824;28;20087;-80
2023/07/29 01:20:38;;;;;;;6.20;4.70;;;14.00;99.90;;;;;;4999303;28;20033;-80
2023/07/29 01:23:04;;;;;;;6.18;4.32;;;13.90;99.90;;;;;;5010263;28;20018;-80
2023/07/29 01:25:30;;;;;;;5.22;4.35;;;13.90;99.90;;;;;;5010568;28;20097;-80
2023/07/29 01:27:56;;;;;;;4.60;3.60;;;13.90;99.90;;;;;;5010271;28;20386;-80
2023/07/29 01:30:27;;;;;;;4.68;4.15;;;13.90;99.90;;;;;;5048833;28;20027;-79
2023/07/29 01:33:21;;;;;;;7.45;5.85;;;13.90;99.90;;;;;;5031711;28;20125;-80
2023/07/29 01:35:54;;;;;;;11.25;6.30;;;13.90;99.90;;;;;;5009116;28;20041;-80
2023/07/29 01:38:31;;;;;;;11.02;6.38;;;13.90;99.90;;;;;;5010402;28;20093;-80
2023/07/29 01:40:57;;;;;;;9.20;6.45;;;13.90;99.90;;;;;;5011472;28;20032;-80
2023/07/29 01:43:25;;;;;;;12.05;7.10;;;13.90;99.90;;;;;;5011531;28;20064;-80
2023/07/29 01:45:51;;;;;;;12.38;7.88;;;13.90;99.90;;;;;;5010351;28;20086;-80
2023/07/29 01:48:17;;;;;;;10.63;6.78;;;14.00;99.90;;;;;;5010282;28;20018;-80
2023/07/29 01:50:43;;;;;;;11.65;6.55;;;14.00;99.90;;;;;;5009794;28;20078;-80
2023/07/29 01:53:08;;;;;;;9.00;6.13;;;14.00;99.90;;;;;;5010054;28;20046;-79
2023/07/29 01:55:34;;;;;;;9.77;6.60;;;14.00;99.90;;;;;;5010764;28;20083;-79
2023/07/29 01:57:59;;;;;;;7.13;5.43;;;14.00;99.90;;;;;;5010271;28;20026;-80
2023/07/29 02:00:25;;;;;;;6.43;4.70;;;14.10;99.90;;;;;;5011131;28;20424;-80
2023/07/29 02:02:50;;;;;;;6.55;4.78;;;14.00;99.90;;;;;;5011307;28;20025;-80
2023/07/29 02:05:16;;;;;;;7.75;5.63;;;13.90;99.90;;;;;;4997406;28;20031;-80
2023/07/29 02:07:42;;;;;;;9.43;5.75;;;14.00;99.90;;;;;;5009541;28;20034;-80
2023/07/29 02:10:08;;;;;;;5.22;4.40;;;14.00;99.90;;;;;;5009957;28;20018;-80
2023/07/29 02:12:34;;;;;;;5.78;3.80;;;13.90;99.90;;;;;;5010573;28;20022;-80
2023/07/29 02:14:59;;;;;;;5.22;3.97;;;13.90;99.90;;;;;;5009905;28;20105;-80
2023/07/29 02:17:26;;;;;;;4.95;3.78;;;13.90;99.90;;;;;;5009423;28;20125;-80
2023/07/29 02:19:51;;;;;;;5.65;3.75;;;13.90;99.90;;;;;;5009566;28;20018;-80
2023/07/29 02:22:18;;;;;;;4.13;3.55;;;13.80;99.90;;;;;;5011151;28;20018;-80
2023/07/29 02:24:44;;;;;;;3.55;3.25;;;13.80;99.90;;;;;;5010862;28;20436;-80
2023/07/29 02:27:10;;;;;;;4.72;3.45;;;13.90;99.90;;;;;;5011080;28;20018;-80
2023/07/29 02:29:36;;;;;;;6.05;3.67;;;13.90;99.90;;;;;;5014959;28;20106;-80
2023/07/29 02:32:02;;;;;;;6.80;4.40;;;13.90;99.90;;;;;;5068525;28;20029;-80
2023/07/29 02:34:28;;;;;;;5.05;3.85;;;13.90;99.90;;;;;;5009012;28;20022;-79
2023/07/29 02:36:54;;;;;;;4.05;3.30;;;13.90;99.90;;;;;;5010666;28;20049;-80
2023/07/29 02:39:19;;;;;;;5.10;3.88;;;14.00;99.90;;;;;;5009261;28;20471;-80
2023/07/29 02:41:45;;;;;;;5.65;4.15;;;14.00;99.90;;;;;;5010540;28;20026;-80
2023/07/29 02:44:11;;;;;;;5.10;4.18;;;14.00;99.90;;;;;;5008990;28;20494;-79
2023/07/29 02:46:36;;;;;;;8.30;4.25;;;14.00;99.90;;;;;;5009330;28;20479;-79
2023/07/29 02:49:03;;;;;;;4.85;4.15;;;14.00;99.90;;;;;;5010418;28;20234;-80
2023/07/29 02:51:30;;;;;;;4.95;4.10;;;14.00;99.90;;;;;;5009396;28;20021;-80
2023/07/29 02:53:55;;;;;;;6.10;3.95;;;14.10;99.90;;;;;;5009077;28;20139;-80
2023/07/29 02:56:21;;;;;;;5.38;3.53;;;14.10;99.90;;;;;;5009091;28;20061;-80
2023/07/29 02:58:46;;;;;;;5.20;3.60;;;14.20;99.90;;;;;;5008774;28;20021;-80
2023/07/29 03:01:12;;;;;;;6.93;4.53;;;14.10;99.90;;;;;;5009343;28;20108;-80
2023/07/29 03:03:39;;;;;;;7.30;4.93;;;14.10;99.90;;;;;;5008815;28;20030;-80
2023/07/29 03:06:09;;;;;;;6.18;4.00;;;14.10;99.90;;;;;;5009155;28;20064;-80
2023/07/29 03:08:36;;;;;;;7.72;4.10;;;14.10;99.90;;;;;;5008493;28;20080;-79
2023/07/29 03:11:10;;;;;;;11.85;5.43;;;14.20;99.90;;;;;;5009180;28;20060;-80
2023/07/29 03:13:36;;;;;;;8.95;5.00;;;14.20;99.90;;;;;;5008999;28;20380;-80
2023/07/29 03:16:09;;;;;;;6.95;4.07;;;14.30;99.90;;;;;;5009422;28;20045;-79
2023/07/29 03:18:35;;;;;;;11.75;4.43;;;14.30;99.90;;;;;;5009926;28;20521;-79
2023/07/29 03:21:01;;;;;;;7.45;4.85;;;14.30;99.90;;;;;;5008986;28;20054;-80
2023/07/29 03:23:28;;;;;;;8.07;6.18;;;14.30;99.90;;;;;;5007717;28;20029;-80
2023/07/29 03:25:57;;;;;;;9.50;5.35;;;14.30;99.90;;;;;;5008870;28;20057;-79
2023/07/29 03:28:28;;;;;;;12.05;6.38;;;14.30;99.90;;;;;;5008415;28;20032;-80
2023/07/29 03:30:54;;;;;;;11.57;5.88;;;14.40;99.90;;;;;;5069435;28;20023;-80
2023/07/29 03:33:20;;;;;;;8.20;6.10;;;14.40;99.90;;;;;;5010740;28;20109;-80
2023/07/29 03:35:46;;;;;;;13.43;7.03;;;14.40;99.90;;;;;;5008543;28;20117;-80
2023/07/29 03:38:11;;;;;;;11.77;6.63;;;14.50;99.90;;;;;;5009826;28;20014;-80
2023/07/29 03:40:41;;;;;;;10.13;7.55;;;14.50;99.90;;;;;;5008796;28;20121;-80
2023/07/29 03:43:07;;;;;;;10.60;7.78;;;14.50;99.90;;;;;;4998138;28;20026;-80
2023/07/29 03:45:35;;;;;;;13.15;8.95;;;14.60;99.90;;;;;;5013619;28;20472;-80
2023/07/29 03:48:01;;;;;;;19.70;11.27;;;14.60;99.90;;;;;;5013355;28;20030;-80
2023/07/29 03:50:27;;;;;;;16.52;11.50;;;14.60;99.90;;;;;;5013460;28;20064;-80
2023/07/29 03:52:53;;;;;;;14.68;10.10;;;14.70;99.90;;;;;;5000392;28;20098;-80
2023/07/29 03:55:18;;;;;;;13.63;10.50;;;14.70;99.90;;;;;;5011880;28;20029;-80
2023/07/29 03:57:44;;;;;;;18.42;10.13;;;14.80;99.90;;;;;;5011900;28;20064;-80
2023/07/29 04:00:10;;;;;;;13.95;8.93;;;14.90;99.90;;;;;;5013109;28;20033;-80
2023/07/29 04:02:38;;;;;;;10.88;7.38;;;14.90;99.90;;;;;;5013329;28;20029;-80
2023/07/29 04:05:05;;;;;;;10.45;7.43;;;14.90;99.90;;;;;;5012075;28;20029;-80
2023/07/29 04:07:31;;;;;;;10.82;6.55;;;14.90;99.90;;;;;;5011896;28;20483;-79
2023/07/29 04:09:56;;;;;;;13.30;7.13;;;14.80;99.90;;;;;;5011738;28;20026;-80
2023/07/29 04:12:23;;;;;;;13.00;6.85;;;14.90;99.90;;;;;;5011776;28;20018;-80
2023/07/29 04:14:49;;;;;;;7.90;5.55;;;14.90;99.90;;;;;;5012882;28;20445;-79
2023/07/29 04:17:14;;;;;;;12.23;7.45;;;15.00;99.90;;;;;;5011696;28;20030;-80
2023/07/29 04:19:40;;;;;;;13.70;7.03;;;15.10;99.90;;;;;;5024577;28;20356;-79
2023/07/29 04:22:06;;;;;;;12.23;8.38;;;15.30;99.90;;;;;;5012853;28;20018;-80
2023/07/29 04:24:31;;;;;;;10.20;8.02;;;15.50;99.90;;;;;;5011495;28;20026;-80
2023/07/29 04:26:57;;;;;;;12.38;8.50;;;15.70;99.90;;;;;;5011677;28;20026;-80
2023/07/29 04:29:23;;;;;;;12.98;7.72;;;15.80;99.90;;;;;;5011324;28;20061;-80
2023/07/29 04:31:52;;;;;;;10.23;7.65;;;16.10;99.90;;;;;;5069994;28;20034;-80
2023/07/29 04:34:19;;;;;;;11.43;7.70;;;16.30;99.90;;;;;;5005285;28;20102;-79
2023/07/29 04:36:45;;;;;;;16.20;8.85;;;16.40;99.90;;;;;;5012331;28;20038;-79
2023/07/29 04:39:10;;;;;;;9.82;7.85;;;16.60;99.90;;;;;;5012674;28;20055;-79
2023/07/29 04:41:36;;;;;;;11.95;8.38;;;16.80;99.90;;;;;;5011248;28;20030;-80
2023/07/29 04:44:02;;;;;;;11.45;8.07;;;16.90;99.90;;;;;;5011131;28;20140;-79
2023/07/29 04:46:27;;;;;;;14.10;8.40;;;17.10;99.90;;;;;;5010973;28;20014;-80
2023/07/29 04:48:53;;;;;;;12.98;9.15;;;17.20;99.90;;;;;;5010485;28;20033;-81
2023/07/29 04:51:19;;;;;;;9.50;8.02;;;17.30;99.90;;;;;;5012323;28;20479;-80
2023/07/29 04:53:44;;;;;;;11.68;7.68;;;17.40;99.90;;;;;;5012346;28;20129;-80
2023/07/29 04:56:10;;;;;;;13.27;8.55;;;17.60;99.90;;;;;;5011111;28;20113;-79
2023/07/29 04:58:35;;;;;;;13.48;9.73;;;17.60;99.90;;;;;;5012149;28;20029;-80
2023/07/29 05:01:04;;;;;;;16.15;9.65;;;17.70;99.90;;;;;;5010841;28;20010;-79
2023/07/29 05:03:30;;;;;;;19.05;9.15;;;17.90;99.90;;;;;;5010926;28;20026;-79
2023/07/29 05:05:57;;;;;;;15.80;10.43;;;18.00;99.90;;;;;;4995336;28;20030;-79
2023/07/29 05:08:24;;;;;;;16.58;11.10;;;18.00;99.90;;;;;;4992752;28;20026;-79
2023/07/29 05:10:50;;;;;;;17.92;10.65;;;18.10;99.90;;;;;;5003377;28;20509;-80
2023/07/29 05:13:16;;;;;;;18.15;11.07;;;18.20;99.90;;;;;;5005561;28;20547;-81
2023/07/29 05:15:41;;;;;;;14.50;10.88;;;18.30;99.90;;;;;;5006577;28;20105;-80
2023/07/29 05:18:07;;;;;;;15.57;10.48;;;18.40;99.90;;;;;;4994331;28;20022;-81
2023/07/29 05:20:32;;;;;;;18.75;11.40;;;18.50;99.90;;;;;;5012026;28;20025;-80
2023/07/29 05:22:58;;;;;;;13.35;9.80;;;18.60;99.90;;;;;;5010551;28;20546;-80
2023/07/29 05:25:23;;;;;;;13.23;10.23;;;18.80;99.90;;;;;;5011156;28;20030;-81
2023/07/29 05:27:49;;;;;;;14.38;10.52;;;18.90;99.90;;;;;;5008745;28;20033;-81
2023/07/29 05:30:15;;;;;;;14.30;9.48;;;19.00;99.90;;;;;;5009929;28;20022;-78
2023/07/29 05:32:40;;;;;;;14.98;10.30;;;19.10;99.90;;;;;;5007035;28;20030;-78
2023/07/29 05:35:06;;;;;;;18.30;10.52;;;19.10;99.90;;;;;;5007069;28;20034;-78
2023/07/29 05:37:32;;;;;;;17.70;10.90;;;19.30;99.90;;;;;;4996821;28;20046;-78
2023/07/29 05:39:58;;;;;;;12.23;10.18;;;19.30;99.90;;;;;;4990523;28;20212;-79
2023/07/29 05:42:23;;;;;;;14.57;9.35;;;19.40;99.90;;;;;;4991139;28;20141;-79
2023/07/29 05:44:49;;;;;;;12.25;9.32;;;19.40;99.90;;;;;;5010491;28;20441;-78
2023/07/29 05:47:15;;;;;;;13.63;10.70;;;19.50;99.90;;;;;;5007321;28;20022;-79
2023/07/29 05:49:40;;;;;;;13.00;10.35;;;19.50;99.90;;;;;;5010357;28;20033;-78
2023/07/29 05:52:07;;;;;;;12.02;9.52;;;19.50;99.90;;;;;;5010720;28;20030;-79
2023/07/29 05:54:32;;;;;;;16.98;11.38;;;19.50;99.90;;;;;;5006828;28;20024;-78
2023/07/29 05:56:58;;;;;;;12.50;10.18;;;19.50;99.90;;;;;;5010113;28;20482;-78
2023/07/29 05:59:24;;;;;;;10.35;8.98;;;19.70;99.90;;;;;;5008780;28;20560;-79
2023/07/29 06:01:49;;;;;;;11.27;9.80;;;19.70;99.90;;;;;;5007877;28;20038;-79
2023/07/29 06:04:15;;;;;;;9.27;8.23;;;19.80;99.90;;;;;;5007594;28;20018;-78
2023/07/29 06:06:40;;;;;;;12.13;9.00;;;19.90;99.90;;;;;;5009271;28;20037;-78
2023/07/29 06:09:06;;;;;;;9.70;8.10;;;20.00;99.90;;;;;;5008198;28;20097;-78
2023/07/29 06:11:31;;;;;;;11.30;8.68;;;20.10;99.90;;;;;;5009231;28;20082;-79
2023/07/29 06:13:57;;;;;;;9.75;8.43;;;20.20;99.90;;;;;;5009313;28;20037;-79
2023/07/29 06:16:23;;;;;;;8.88;7.05;;;20.30;99.90;;;;;;5000012;28;20134;-79
2023/07/29 06:18:48;;;;;;;7.35;6.18;;;20.40;99.90;;;;;;5001626;28;20037;-79
2023/07/29 06:21:16;;;;;;;8.27;7.45;;;20.50;99.90;;;;;;5003552;28;20092;-79
2023/07/29 06:23:43;;;;;;;9.48;6.95;;;20.60;99.90;;;;;;4997675;28;20427;-79
2023/07/29 06:26:09;;;;;;;10.25;6.78;;;20.60;99.90;;;;;;4991311;28;20022;-81
2023/07/29 06:28:34;;;;;;;9.90;7.82;;;20.70;99.90;;;;;;5004038;28;20033;-80
2023/07/29 06:31:00;;;;;;;9.40;7.63;;;20.80;99.90;;;;;;5015312;28;20099;-80
2023/07/29 06:33:26;;;;;;;9.38;8.23;;;21.00;99.90;;;;;;5009149;28;20025;-79
2023/07/29 06:35:51;;;;;;;12.07;7.93;;;21.10;99.90;;;;;;5009935;28;20030;-79
2023/07/29 06:38:21;;;;;;;9.90;7.00;;;21.20;99.90;;;;;;5008740;28;20495;-80
2023/07/29 06:40:47;;;;;;;7.38;6.68;;;21.40;99.90;;;;;;5009979;28;20491;-80
2023/07/29 06:43:13;;;;;;;8.02;6.57;;;21.50;99.90;;;;;;4998340;28;20522;-80
2023/07/29 06:45:39;;;;;;;7.13;5.90;;;21.60;99.90;;;;;;5006692;28;20024;-79
2023/07/29 06:48:04;;;;;;;6.80;5.10;;;21.70;99.90;;;;;;5010194;28;20024;-80
2023/07/29 06:50:30;;;;;;;6.82;4.90;;;21.80;99.90;;;;;;5004648;28;20029;-79
2023/07/29 06:52:56;;;;;;;7.28;5.95;;;21.90;99.90;;;;;;4993465;28;20081;-81
2023/07/29 06:55:21;;;;;;;7.22;5.45;;;22.00;99.90;;;;;;5002839;28;20109;-80
2023/07/29 06:57:47;;;;;;;7.00;5.55;;;22.10;99.90;;;;;;4991395;28;20100;-80
2023/07/29 07:00:13;;;;;;;6.13;5.50;;;22.20;99.90;;;;;;4996471;28;20026;-80
2023/07/29 07:02:38;;;;;;;7.57;5.20;;;22.30;99.90;;;;;;5007734;28;20034;-80
2023/07/29 07:05:04;;;;;;;5.15;4.65;;;22.50;99.90;;;;;;5005363;28;20022;-80
2023/07/29 07:07:30;;;;;;;6.18;5.03;;;22.50;99.90;;;;;;5013273;28;20029;-80
2023/07/29 07:09:56;;;;;;;4.65;4.25;;;22.80;99.90;;;;;;5001269;28;20026;-80
2023/07/29 07:12:22;;;;;;;5.55;4.50;;;22.80;99.90;;;;;;5008554;28;20387;-81
2023/07/29 07:14:47;;;;;;;5.40;4.55;;;22.80;99.90;;;;;;4994756;28;20027;-81
2023/07/29 07:17:13;;;;;;;5.85;4.28;;;23.00;99.90;;;;;;5006059;28;20422;-80
2023/07/29 07:19:39;;;;;;;5.05;3.50;;;22.80;99.90;;;;;;5009350;28;20079;-79
2023/07/29 07:22:04;;;;;;;4.78;3.70;;;22.80;99.90;;;;;;4995530;28;20033;-80
2023/07/29 07:24:30;;;;;;;5.60;3.45;;;22.80;99.90;;;;;;5009808;28;20048;-80
2023/07/29 07:26:56;;;;;;;4.75;3.67;;;22.90;99.90;;;;;;5007966;28;20364;-80
2023/07/29 07:29:22;;;;;;;4.05;3.67;;;23.20;99.90;;;;;;5008825;28;20167;-80
2023/07/29 07:31:54;;;;;;;4.88;3.75;;;23.40;99.90;;;;;;5007895;28;20026;-80
2023/07/29 07:34:20;;;;;;;4.05;3.67;;;23.40;99.90;;;;;;5008475;28;20025;-81
2023/07/29 07:36:46;;;;;;;5.57;3.00;;;23.50;99.90;;;;;;5009723;28;20030;-81
2023/07/29 07:39:12;;;;;;;3.13;2.72;;;23.50;99.90;;;;;;5008501;28;20033;-81
2023/07/29 07:41:37;;;;;;;2.95;2.65;;;23.40;99.90;;;;;;5007948;28;20018;-81
2023/07/29 07:44:03;;;;;;;3.17;2.88;;;23.30;99.90;;;;;;5006162;28;20023;-81
2023/07/29 07:46:29;;;;;;;2.72;2.25;;;23.10;99.60;;;;;;5007050;28;20395;-81
2023/07/29 07:48:55;;;;;;;3.17;2.90;;;22.90;99.90;;;;;;4993321;28;20086;-81
2023/07/29 07:51:20;;;;;;;4.63;2.67;;;22.90;99.90;;;;;;5006404;28;20471;-81
2023/07/29 07:53:46;;;;;;;5.75;4.25;;;23.20;99.90;;;;;;5007381;28;20080;-81
2023/07/29 07:56:12;;;;;;;6.03;4.15;;;23.30;99.90;;;;;;5006707;28;20506;-81
2023/07/29 07:58:38;;;;;;;6.30;5.07;;;23.20;99.90;;;;;;5007170;28;20029;-81
2023/07/29 08:01:08;;;;;;;4.88;4.40;;;23.10;99.90;;;;;;5008875;28;20030;-81
2023/07/29 08:03:35;;;;;;;6.10;4.32;;;23.30;99.90;;;;;;5008069;28;20030;-81
2023/07/29 08:06:01;;;;;;;5.35;4.00;;;23.50;99.90;;;;;;5008278;28;20040;-81
2023/07/29 08:08:27;;;;;;;6.93;4.22;;;23.80;95.20;;;;;;5007889;28;20105;-81
2023/07/29 08:10:54;;;;;;;5.70;4.72;;;24.10;93.80;;;;;;5009365;28;20030;-81
2023/07/29 08:13:20;;;;;;;5.45;4.22;;;24.30;96.10;;;;;;5009305;28;20070;-81
2023/07/29 08:15:50;;;;;;;6.43;4.10;;;24.30;89.20;;;;;;5009180;28;20539;-82
2023/07/29 08:18:17;;;;;;;6.05;4.68;;;24.10;89.10;;;;;;5007866;28;20033;-83
2023/07/29 08:20:52;;;;;;;7.47;4.63;;;24.30;90.60;;;;;;5008100;28;20030;-82
2023/07/29 08:23:18;;;;;;;3.78;3.30;;;24.60;86.30;;;;;;4996276;28;20027;-82
2023/07/29 08:25:44;;;;;;;3.67;3.20;;;24.80;81.40;;;;;;5002647;28;20379;-82
2023/07/29 08:28:11;;;;;;;4.90;3.22;;;24.90;78.20;;;;;;5001651;28;20033;-82
2023/07/29 08:30:36;;;;;;;4.10;3.20;;;25.00;77.00;;;;;;4999442;28;20474;-81
2023/07/29 08:33:02;;;;;;;3.63;3.33;;;25.00;77.70;;;;;;5003678;28;20108;-81
2023/07/29 08:35:27;;;;;;;3.75;3.17;;;24.90;76.70;;;;;;5009618;28;20024;-81
2023/07/29 08:37:53;;;;;;;3.35;3.00;;;24.60;77.30;;;;;;4998188;28;20515;-81
2023/07/29 08:40:26;;;;;;;4.22;3.28;;;24.50;81.20;;;;;;5009526;28;20434;-81
2023/07/29 08:42:54;;;;;;;4.45;3.60;;;24.30;78.10;;;;;;4995456;28;20019;-82
2023/07/29 08:45:19;;;;;;;4.53;3.70;;;24.10;79.70;;;;;;5011279;28;20018;-81
2023/07/29 08:47:45;;;;;;;5.07;3.78;;;24.20;81.70;;;;;;5005723;28;20026;-81
2023/07/29 08:50:12;;;;;;;7.03;3.88;;;24.00;89.10;;;;;;5012828;28;20446;-81
2023/07/29 08:52:38;;;;;;;4.68;4.18;;;24.00;88.90;;;;;;5011815;28;20514;-81
2023/07/29 08:55:05;;;;;;;7.50;4.28;;;23.80;88.50;;;;;;5008753;28;20025;-81
2023/07/29 08:57:30;;;;;;;8.00;4.43;;;23.90;88.30;;;;;;5005335;28;20041;-82
2023/07/29 08:59:57;;;;;;;5.13;4.00;;;24.10;90.00;;;;;;5008040;28;20471;-82
2023/07/29 09:02:23;;;;;;;5.72;4.28;;;24.50;88.70;;;;;;5008322;28;20030;-82
2023/07/29 09:04:49;;;;;;;7.07;4.63;;;24.40;82.60;;;;;;5007251;28;20022;-82
2023/07/29 09:07:15;;;;;;;6.28;4.38;;;24.30;83.20;;;;;;5008397;28;20018;-82
2023/07/29 09:09:41;;;;;;;4.50;4.07;;;24.10;81.30;;;;;;5011657;28;20022;-81
2023/07/29 09:12:07;;;;;;;7.82;4.68;;;24.10;83.10;;;;;;5011917;28;20473;-81
2023/07/29 09:14:32;;;;;;;6.00;4.32;;;24.00;84.60;;;;;;5023695;28;20057;-82
2023/07/29 09:16:59;;;;;;;5.28;4.28;;;24.00;89.10;;;;;;5010760;28;20069;-82
2023/07/29 09:19:26;;;;;;;6.60;4.63;;;23.80;92.00;;;;;;5010077;28;20022;-82
2023/07/29 09:21:52;;;;;;;8.00;4.75;;;23.70;93.80;;;;;;5011368;28;20095;-81
2023/07/29 09:24:20;;;;;;;5.85;4.88;;;23.50;90.50;;;;;;5010309;28;20465;-82
2023/07/29 09:26:50;;;;;;;5.78;4.90;;;23.40;92.90;;;;;;5011137;28;20026;-82
2023/07/29 09:29:15;;;;;;;8.63;4.95;;;23.30;98.60;;;;;;5007190;28;20596;-80
2023/07/29 09:31:41;;;;;;;8.45;5.43;;;23.10;99.90;;;;;;5007774;28;20034;-79
2023/07/29 09:34:08;;;;;;;8.50;6.18;;;23.00;99.90;;;;;;5011504;28;20051;-78
2023/07/29 09:36:34;;;;;;;13.18;5.85;;;22.90;99.90;;;;;;5009784;28;20041;-79
2023/07/29 09:39:00;;;;;;;9.02;5.75;;;22.70;99.90;;;;;;5005121;28;20023;-81
2023/07/29 09:41:27;;;;;;;8.27;6.45;;;22.50;99.90;;;;;;5013095;28;20047;-81
2023/07/29 09:44:01;;;;;;;8.18;6.72;;;22.30;99.90;;;;;;4998582;28;20033;-81
2023/07/29 09:46:34;;;;;;;10.27;7.30;;;22.10;99.90;;;;;;4999848;28;20471;-81
2023/07/29 09:49:01;;;;;;;7.63;6.68;;;22.00;99.90;;;;;;5011557;28;20371;-79
2023/07/29 09:51:26;;;;;;;7.85;5.82;;;22.00;99.90;;;;;;5011120;28;20021;-81
2023/07/29 09:53:52;;;;;;;7.50;6.20;;;21.80;99.90;;;;;;5003538;28;20384;-82
2023/07/29 09:56:23;;;;;;;9.80;5.78;;;21.80;99.90;;;;;;5005510;28;20038;-82
2023/07/29 09:58:49;;;;;;;7.10;5.85;;;21.80;99.90;;;;;;5011390;28;20025;-82
2023/07/29 10:01:15;;;;;;;9.77;5.78;;;21.80;99.90;;;;;;5009401;28;20391;-79
2023/07/29 10:03:42;;;;;;;6.75;5.45;;;22.00;99.90;;;;;;5009892;28;20025;-82
2023/07/29 10:06:07;;;;;;;6.03;4.68;;;22.30;99.90;;;;;;4996298;28;20034;-82
2023/07/29 10:08:38;;;;;;;4.88;4.38;;;22.60;99.90;;;;;;5007111;28;20432;-82
2023/07/29 10:11:06;;;;;;;4.97;4.45;;;22.80;99.90;;;;;;5011036;28;20113;-83
2023/07/29 10:13:33;;;;;;;7.47;5.70;;;22.80;99.90;;;;;;5009576;28;20029;-81
2023/07/29 10:16:02;;;;;;;5.65;4.88;;;22.90;99.90;;;;;;5009734;28;20129;-81
2023/07/29 10:18:28;;;;;;;4.60;3.80;;;22.90;99.90;;;;;;5010729;28;20063;-82
2023/07/29 10:20:56;;;;;;;5.35;4.85;;;23.00;99.90;;;;;;5009437;28;20041;-83
2023/07/29 10:23:24;;;;;;;7.28;4.63;;;23.10;99.90;;;;;;5007265;28;20022;-82
2023/07/29 10:26:09;;;;;;;5.13;4.45;;;23.30;99.90;;;;;;5006491;28;20545;-82
2023/07/29 10:28:39;;;;;;;5.05;4.55;;;23.30;99.90;;;;;;4998295;28;20025;-82
2023/07/29 10:31:05;;;;;;;6.65;5.10;;;23.50;99.90;;;;;;5007463;28;20473;-82
2023/07/29 10:33:33;;;;;;;7.07;4.93;;;23.70;99.90;;;;;;5007387;28;20058;-83
2023/07/29 10:35:59;;;;;;;5.38;3.75;;;24.10;99.90;;;;;;4997825;28;20045;-81
2023/07/29 10:38:25;;;;;;;3.90;3.50;;;24.40;91.80;;;;;;4993571;28;20030;-81
2023/07/29 10:40:56;;;;;;;4.30;2.90;;;24.80;95.60;;;;;;4995478;28;20100;-82
2023/07/29 10:43:37;;;;;;;2.55;2.35;;;25.10;77.00;;;;;;4991692;28;20015;-84
2023/07/29 10:46:25;;;;;;;3.85;3.40;;;25.40;72.90;;;;;;4992524;28;20034;-84
2023/07/29 10:48:50;;;;;;;3.58;2.60;;;25.50;74.10;;;;;;4991723;28;20026;-85
2023/07/29 10:51:36;;;;;;;4.40;3.50;;;25.50;70.20;;;;;;5004213;28;20479;-83
2023/07/29 10:54:09;;;;;;;3.58;2.65;;;25.70;72.50;;;;;;4996776;28;20121;-84
2023/07/29 10:56:36;;;;;;;3.30;2.30;;;25.70;73.20;;;;;;5001214;28;20436;-84
2023/07/29 10:59:11;;;;;;;2.75;2.55;;;25.60;72.40;;;;;;5008524;28;20017;-84
2023/07/29 11:01:45;;;;;;;3.38;2.28;;;25.80;73.30;;;;;;4992562;28;20031;-83
2023/07/29 11:04:26;;;;;;;2.78;2.38;;;26.10;70.90;;;;;;5008441;28;20061;-84
2023/07/29 11:07:05;;;;;;;2.33;2.13;;;26.20;68.90;;;;;;5006478;28;20026;-82
2023/07/29 11:09:43;;;;;;;2.30;2.10;;;26.50;70.50;;;;;;5008133;28;20014;-82
2023/07/29 11:12:37;;;;;;;2.97;2.00;;;26.50;68.20;;;;;;5008265;28;20089;-83
2023/07/29 11:15:24;;;;;;;2.42;2.22;;;26.50;66.80;;;;;;5006995;28;20050;-82
2023/07/29 11:17:57;;;;;;;3.92;2.65;;;26.70;66.90;;;;;;5005414;28;20500;-81
2023/07/29 11:20:24;;;;;;;2.15;2.05;;;26.70;65.10;;;;;;5005449;28;20014;-82
2023/07/29 11:22:50;;;;;;;2.92;2.00;;;26.90;65.40;;;;;;5002149;28;20026;-83
2023/07/29 11:25:18;;;;;;;2.50;2.25;;;27.00;64.70;;;;;;5004713;28;20051;-82
2023/07/29 11:27:45;;;;;;;2.50;2.30;;;26.90;65.80;;;;;;5006178;28;20395;-83
2023/07/29 11:30:12;;;;;;;3.03;2.67;;;26.70;65.60;;;;;;5008210;28;20026;-83
2023/07/29 11:32:39;;;;;;;2.83;2.47;;;26.40;66.30;;;;;;5008952;28;20048;-82
2023/07/29 11:35:07;;;;;;;3.22;2.13;;;26.10;66.60;;;;;;5009656;28;20018;-82
2023/07/29 11:37:36;;;;;;;2.13;2.00;;;25.90;70.10;;;;;;5009068;28;20038;-83
2023/07/29 11:40:02;;;;;;;2.35;2.17;;;25.90;71.20;;;;;;5008623;28;20025;-83
2023/07/29 11:42:28;;;;;;;3.25;2.28;;;25.70;73.10;;;;;;5008408;28;20026;-82
2023/07/29 11:45:00;;;;;;;7.00;2.45;;;25.50;71.80;;;;;;5009657;28;20105;-82
2023/07/29 11:47:27;;;;;;;3.88;2.85;;;25.50;74.10;;;;;;5009755;28;20026;-82
2023/07/29 11:49:52;;;;;;;3.60;2.58;;;25.70;73.90;;;;;;5008624;28;20389;-82
2023/07/29 11:52:19;;;;;;;2.50;2.33;;;26.10;75.20;;;;;;5008274;28;20042;-82
2023/07/29 11:54:47;;;;;;;3.05;2.28;;;26.40;67.70;;;;;;5008103;28;20556;-83
2023/07/29 11:57:14;;;;;;;3.50;2.92;;;26.70;69.60;;;;;;5008029;28;20030;-82
2023/07/29 11:59:41;;;;;;;4.80;2.38;;;27.10;68.00;;;;;;5009618;28;20057;-83
2023/07/29 12:02:16;;;;;;;2.17;1.98;;;27.20;65.60;;;;;;5008156;28;20379;-83
2023/07/29 12:04:43;;;;;;;2.30;2.20;;;27.40;66.30;;;;;;5012911;28;20030;-82
2023/07/29 12:07:08;;;;;;;2.35;2.15;;;27.50;64.60;;;;;;5013097;28;20431;-82
2023/07/29 12:09:35;;;;;;;1.85;1.73;;;27.30;64.90;;;;;;5012890;28;20112;-82
2023/07/29 12:12:03;;;;;;;2.47;2.28;;;27.00;65.60;;;;;;5006726;28;20020;-83
2023/07/29 12:14:29;;;;;;;2.80;2.55;;;26.80;65.20;;;;;;5004876;28;20033;-82
2023/07/29 12:16:55;;;;;;;2.92;2.22;;;26.70;64.60;;;;;;5011131;28;20034;-83
2023/07/29 12:19:22;;;;;;;1.85;1.48;;;26.70;66.30;;;;;;5011735;28;20030;-83
2023/07/29 12:21:48;;;;;;;4.00;3.35;;;26.50;66.70;;;;;;4998686;28;20029;-83
2023/07/29 12:24:14;;;;;;;2.80;2.60;;;26.40;67.00;;;;;;5011397;28;20034;-82
2023/07/29 12:26:41;;;;;;;2.63;2.42;;;26.30;66.80;;;;;;5011423;28;20466;-82
2023/07/29 12:29:14;;;;;;;3.05;2.90;;;26.20;68.60;;;;;;5012574;28;20022;-82
2023/07/29 12:31:40;;;;;;;3.42;3.22;;;26.00;67.00;;;;;;5012816;28;20025;-82
2023/07/29 12:34:06;;;;;;;1.92;1.67;;;26.00;70.50;;;;;;5011428;28;20022;-83
2023/07/29 12:36:48;;;;;;;2.28;2.08;;;26.00;71.00;;;;;;5012750;28;20408;-82
2023/07/29 12:39:24;;;;;;;1.90;1.80;;;26.00;71.20;;;;;;5012772;28;20196;-83
2023/07/29 12:41:52;;;;;;;3.05;2.85;;;26.00;69.30;;;;;;5011362;28;20478;-83
2023/07/29 12:44:18;;;;;;;5.38;3.78;;;25.90;68.30;;;;;;5012483;28;20029;-83